Statewide Weather Sensors

Route Weather Station Name Milepost Date / Time Surface Status Surface Temp Precip Intensity Wind Avg Wind Gust Dir Dewpoint Humidity Air Temp Visibility
I 25 Wyo Hill 3.52 Oct 04, 2022 11:22 pm     None None 8 mph 9 mph N 39.2°F 80% 44.6°F > 1/2 mi
I 25 Whitaker 28.1 Oct 04, 2022 11:22 pm Dry 46.4°F None None 6 mph 7 mph W 35.6°F 86% 39.2°F > 1/2 mi
I 25 Bear Creek 46.77 Oct 04, 2022 11:22 pm Dry 52.7°F None None 6 mph 6 mph NW 37.4°F 70% 46.4°F > 1/2 mi
I 25 Bordeaux 70.8 Oct 04, 2022 11:22 pm Dry 53.8°F None None 7 mph 9 mph W 37.4°F 52% 53.6°F > 1/2 mi
I 25 Coleman 98.7 Oct 04, 2022 11:22 pm Dry 51.8°F None None 6 mph 7 mph NW 39.2°F 66% 50.0°F > 1/2 mi
I 25 Platte/Converse County Line 119.9 Oct 04, 2022 11:22 pm Dry 48.7°F None None 1 mph 2 mph SE 37.4°F 71% 46.4°F < 1/4 mi
I 25 Deer Creek 164.2 Oct 04, 2022 11:22 pm Dry 53.2°F None None 2 mph 2 mph S 37.4°F 79% 42.8°F > 1/2 mi
I 25 Hat Six 181.67 Oct 04, 2022 11:22 pm N/A   None None 1 mph 4 mph SE 41.0°F 74% 48.2°F > 1/2 mi
I 25 F Street Hill 189.51 Oct 04, 2022 11:22 pm Dry 54.5°F None None 3 mph 5 mph E 41.0°F 68% 50.0°F > 1/2 mi
I 25 Twenty Mile Hill 207.2 Oct 04, 2022 11:22 pm     None None 6 mph 7 mph SW 39.2°F 88% 42.8°F > 1/2 mi
I 25 Smokey Gap 228.58 Oct 04, 2022 11:22 pm Dry 52.3°F None None 7 mph 8 mph S 41.0°F 71% 50.0°F > 1/2 mi
I 25 Tisdale 238.87 Oct 04, 2022 11:23 pm Dry 52.3°F None None 2 mph 4 mph NW 42.8°F 77% 50.0°F > 1/2 mi
I 25 I-25 Divide 267.3 Oct 04, 2022 11:22 pm Dry 55.9°F None None 2 mph 4 mph N 42.8°F 68% 51.8°F > 1/2 mi
I 80 Evanston POE .06 Oct 04, 2022 11:22 pm N/A 158.0°F None None 3 mph 9 mph SW 26.6°F 67% 37.4°F > 1/2 mi
I 80 Evanston 4.2 Oct 04, 2022 11:22 pm N/A   None None 0 mph 2 mph W 30.2°F 62% 42.8°F > 1/2 mi
I 80 Bear River Drive 6.94 Aug 18, 2022 05:58 am                      
I 80 Painter 10.16 Oct 04, 2022 11:22 pm Dry 50.9°F None None 1 mph 2 mph E 26.6°F 53% 41.0°F > 1/2 mi
I 80 First Divide 13.86 Oct 04, 2022 11:22 pm Dry 52.5°F None None 4 mph 6 mph NE 24.8°F 40% 48.2°F > 1/2 mi
I 80 US 189 Interchange 17.66 Oct 04, 2022 11:22 pm Dry 51.8°F None None 1 mph 2 mph SW 24.8°F 56% 39.2°F > 1/2 mi
I 80 Coal Road 20.95 Oct 04, 2022 11:22 pm Dry 54.3°F None None 0 mph 0 mph E 26.6°F 43% 48.2°F > 1/2 mi
I 80 Leroy 23.35 Oct 04, 2022 11:22 pm Dry 50.0°F None None 2 mph 6 mph S 26.6°F 63% 39.2°F > 1/2 mi
I 80 French 27.6 Oct 04, 2022 11:22 pm Dry 52.7°F None None 4 mph 7 mph S 26.6°F 46% 46.4°F > 1/2 mi
I 80 Church Butte 52.65 Oct 04, 2022 11:22 pm Dry 52.9°F None None 1 mph 4 mph S 28.4°F 45% 50.0°F > 1/2 mi
I 80 Peru Hill 82.31 Oct 04, 2022 11:22 pm Dry 52.5°F None None 6 mph 7 mph E 30.2°F 51% 48.2°F > 1/2 mi
I 80 Green River Tunnel 90.5 Oct 04, 2022 11:22 pm Dry 56.7°F None None 11 mph 18 mph NE 32.0°F 41% 53.6°F > 1/2 mi
I 80 Rock Springs West 97.9 Oct 04, 2022 11:22 pm N/A   None None 4 mph 7 mph NE 32.0°F 48% 50.0°F > 1/2 mi
I 80 Baxter Road 111.5 Oct 04, 2022 11:22 pm     None None 2 mph 6 mph N 32.0°F 50% 50.0°F > 1/2 mi
I 80 Mile Marker 124.5 124.5 Oct 04, 2022 11:22 pm Dry 51.6°F None None 6 mph 9 mph E 33.8°F 57% 48.2°F > 1/2 mi
I 80 Point of Rocks 129.8 Oct 04, 2022 11:22 pm Dry 48.0°F None None 2 mph 2 mph E 35.6°F 68% 44.6°F > 1/2 mi
I 80 Black Butte 134.91 Oct 04, 2022 11:22 pm Dry 47.1°F None None 2 mph 14 mph NW 33.8°F 57% 46.4°F > 1/2 mi
I 80 Bitter Creek 141.83 Oct 04, 2022 11:22 pm Dry 49.3°F None None 13 mph 14 mph NE 32.0°F 51% 48.2°F > 1/2 mi
I 80 Tipton 156.72 Oct 04, 2022 11:22 pm Dry 48.9°F None None 0 mph 0 mph E 33.8°F 64% 46.4°F > 1/2 mi
I 80 Continental Divide 184.3 Oct 04, 2022 11:22 pm Dry 46.0°F None None 5 mph 8 mph E 33.8°F 72% 42.8°F > 1/2 mi
I 80 Sinclair 221.7 Oct 04, 2022 11:22 pm Dry 46.0°F None None 4 mph 6 mph SW 35.6°F 68% 44.6°F > 1/2 mi
I 80 Walcott Junction 234.66 Oct 04, 2022 11:22 pm Dry 46.8°F None None 2 mph 3 mph NW 35.6°F 66% 46.4°F > 1/2 mi
I 80 Dana Ridge 244.8 Oct 04, 2022 11:22 pm Dry 48.9°F None None 9 mph 10 mph E 35.6°F 66% 44.6°F > 1/2 mi
I 80 Mile Marker 249.1 249.1 Oct 04, 2022 11:22 pm N/A   None None 4 mph 6 mph E 33.8°F 62% 46.4°F > 1/2 mi
I 80 Halleck Ridge 252.16 Oct 04, 2022 11:22 pm N/A   None None 4 mph 7 mph SW 32.0°F 60% 44.6°F > 1/2 mi
I 80 Elk Mountain 256.17 Oct 04, 2022 11:22 pm N/A   None None 2 mph 5 mph N 32.0°F 81% 37.4°F > 1/2 mi
I 80 County Road 402 262 Oct 04, 2022 11:22 pm Wet 49.1°F None None 8 mph 9 mph S 32.0°F 65% 42.8°F > 1/2 mi
I 80 Wagonhound 266.58 Oct 04, 2022 11:22 pm Dry 46.4°F None None 2 mph 5 mph SE 33.8°F 75% 41.0°F > 1/2 mi
I 80 Foote Creek 269.5 Oct 04, 2022 11:22 pm Dry 44.8°F None None 3 mph 4 mph E 33.8°F 70% 42.8°F > 1/2 mi
I 80 Arlington 271.8 Oct 04, 2022 11:22 pm Dry 44.4°F None None 4 mph 7 mph W 32.0°F 69% 41.0°F > 1/2 mi
I 80 Arlington East 273.85 Oct 04, 2022 11:22 pm Dry 48.6°F None None 5 mph 7 mph S 33.8°F 66% 44.6°F > 1/2 mi
I 80 Cooper Cove 279.36 Oct 04, 2022 11:22 pm Dry 43.3°F None None 5 mph 8 mph SE 33.8°F 71% 42.8°F > 1/2 mi
I 80 Strouss Hill 283.75 Oct 04, 2022 11:22 pm N/A   None None 4 mph 6 mph NW 32.0°F 73% 41.0°F > 1/2 mi
I 80 Quealy Dome 289.5 Oct 04, 2022 11:22 pm N/A   None None 7 mph 8 mph W     39.2°F > 1/2 mi
I 80 Herrick Lane 297.66 Oct 04, 2022 11:22 pm Dry 42.8°F None None 4 mph 5 mph W 30.2°F 77% 37.4°F > 1/2 mi
I 80 Summit East 325.8 Oct 04, 2022 11:22 pm N/A   None None 1 mph 3 mph NW 33.8°F 71% 41.0°F > 1/2 mi
I 80 Vedauwoo 329.4 Oct 04, 2022 11:22 pm N/A   None None 2 mph 4 mph N 32.0°F 70% 41.0°F > 1/2 mi
I 80 Lone Tree 333.32 Oct 04, 2022 11:22 pm Dry 45.0°F None None 6 mph 7 mph N 32.0°F 71% 41.0°F > 1/2 mi
I 80 Buford East 336.1 Oct 04, 2022 11:22 pm Dry 48.4°F None None 5 mph 6 mph NW 33.8°F 70% 42.8°F > 1/2 mi
I 80 Remount Road 340.5 Oct 04, 2022 11:22 pm Dry 48.0°F None None 5 mph 6 mph W 35.6°F 80% 41.0°F > 1/2 mi
I 80 Otto 347.69 Oct 04, 2022 11:22 pm Dry 47.1°F None None 7 mph 8 mph   37.4°F 76% 42.8°F > 1/2 mi
I 80 MP 353 353 Oct 04, 2022 11:22 pm Dry 49.6°F None None 2 mph 5 mph SW 37.4°F 83% 42.8°F > 1/2 mi
I 80 Cheyenne East 373 Oct 04, 2022 11:22 pm Dry 46.2°F None None 4 mph 7 mph NW 39.2°F 83% 44.6°F > 1/2 mi
I 90 Montana State Line .1 Oct 04, 2022 11:22 pm Trace Moisture 50.5°F None None 2 mph 3 mph N 39.2°F 63% 50.0°F > 1/2 mi
I 90 Pompey Creek 35.3 Oct 04, 2022 11:22 pm Dry 50.7°F None None 0 mph 1 mph SE 39.2°F 61% 51.8°F > 1/2 mi
I 90 Sheridan/Johnson County Line 41.33 Oct 04, 2022 11:22 pm Dry 51.4°F None None 1 mph 1 mph E 42.8°F 66% 53.6°F > 1/2 mi
I 90 Piney Creek Interchange 44.7 Oct 04, 2022 11:22 pm Dry 51.3°F None   2 mph 7 mph NW 39.2°F 66% 50.0°F  
I 90 Kearny Divide 45.33 Oct 04, 2022 11:22 pm N/A   None None 6 mph 9 mph NW 39.2°F 65% 50.0°F > 1/2 mi
I 90 Indian Creek Road 83.3 Oct 04, 2022 11:22 pm Dry 52.5°F None None 10 mph 11 mph NW 42.8°F 70% 53.6°F > 1/2 mi
I 90 Dead Horse 91.5 Jul 13, 2022 07:08 am                      
I 90 Mile Marker 108 108 Oct 04, 2022 11:22 pm Dry 47.5°F None None 3 mph 3 mph SW 42.8°F 66% 53.6°F > 1/2 mi
I 90 Inyan Kara 170.5 Oct 04, 2022 11:22 pm Dry 47.5°F None   4 mph 5 mph E 37.4°F 86% 41.0°F  
I 90 Beulah 205.9 Oct 04, 2022 11:22 pm Dry 51.8°F None None 7 mph 7 mph W 42.8°F 89% 46.4°F > 1/2 mi
US 14 Ucross 27.83 Oct 04, 2022 11:22 pm Dry 49.3°F None None 1 mph 6 mph S 42.8°F 94% 42.8°F > 1/2 mi
US 14 Granite Pass 38.95 Oct 04, 2022 11:22 pm N/A   None None 0 mph 0 mph NW 28.4°F 90% 30.2°F > 1/2 mi
US 16 Big Horn County Line 44.01 Oct 04, 2022 11:22 pm Dry 38.7°F None None 6 mph 7 mph NW 30.2°F 94% 30.2°F > 1/2 mi
US 191 Farson 40.45 Oct 04, 2022 11:22 pm Dry 54.7°F None   4 mph 6 mph NE 33.8°F 59% 46.4°F  
US 191 Warren Bridge 119.9 Oct 04, 2022 11:22 pm Dry 49.6°F None None 9 mph 11 mph N 32.0°F 72% 41.0°F > 1/2 mi
US 20 Natrona 30 Oct 04, 2022 11:22 pm N/A   None None 20 mph 26 mph SW 37.4°F 90% 39.2°F > 1/2 mi
US 20 Hiland 57.4 Oct 04, 2022 11:22 pm Dry 50.7°F None None 6 mph 6 mph SE 39.2°F 88% 41.0°F > 1/2 mi
US 20 Van Tassell 57.85 Oct 04, 2022 11:22 pm Dry 47.8°F None None 4 mph 6 mph NW 37.4°F 89% 41.0°F > 1/2 mi
US 26 Wind River Lake 26.05 Oct 04, 2022 11:22 pm Ice Warning 30.0°F None None 9 mph 12 mph N 30.2°F 79% 35.6°F > 1/2 mi
US 287 Pumpkin Vine 420.4 Oct 04, 2022 11:22 pm Dry 46.9°F None None 4 mph 5 mph N 32.0°F 66% 42.8°F > 1/2 mi
US 30 Sage Junction 34 Oct 04, 2022 11:22 pm Dry 52.2°F None None 5 mph 6 mph E 30.2°F 67% 41.0°F > 1/2 mi
US 30 Nugget Canyon 39.7 Sep 27, 2021 12:52 pm                      
US 85 Gun Barrel 46.8 Oct 04, 2022 11:22 pm Dry 48.2°F None None 5 mph 6 mph NW 41.0°F 92% 44.6°F > 1/2 mi
US 85 Four Corners 247.2 Oct 04, 2022 11:22 pm Dry 42.8°F None None 4 mph 6 mph NE 35.6°F 100% 35.6°F > 1/2 mi
WY 120 Meeteetse 61.5 Oct 04, 2022 11:22 pm Dry 47.8°F None   0 mph 2 mph W -2.2°F 9% 51.8°F > 1/2 mi
WY 210 Wildcat Trail 21.52 Oct 04, 2022 11:22 pm Dry 46.8°F None None 2 mph 4 mph W 33.8°F 69% 42.8°F > 1/2 mi
WY 210 Hynds Lodge Road 24.55 Oct 04, 2022 11:22 pm N/A   None None 5 mph 6 mph NW 32.0°F 74% 39.2°F > 1/2 mi
WY 22 Teton Pass 11.2 Oct 04, 2022 11:22 pm Dry 47.1°F None None 1 mph 1 mph S 33.8°F 64% 44.6°F > 1/2 mi
WY 220 Pathfinder Hill 80.1 Oct 04, 2022 11:22 pm Dry 49.3°F None None 6 mph 7 mph NE 37.4°F 83% 41.0°F > 1/2 mi
WY 230 Skyline 230 113.2 Oct 04, 2022 11:22 pm N/A   None                
WY 258 Outer Drive 13.77 Oct 04, 2022 11:22 pm Dry 54.3°F None None 9 mph 10 mph SE 39.2°F 63% 51.8°F > 1/2 mi
WY 28 New South Pass 41.4 Oct 04, 2022 11:22 pm Dry 46.0°F None None 10 mph 14 mph N 35.6°F 70% 44.6°F > 1/2 mi
WY 28 Lower Red Canyon 59.71 Oct 04, 2022 11:22 pm Dry 48.4°F None None 2 mph 5 mph SE 35.6°F 57% 50.0°F > 1/2 mi
WY 296 Chief Joseph 32.96 Oct 04, 2022 11:22 pm N/A   None None 4 mph 5 mph N       > 1/2 mi
WY 372 Shute Creek 34 Oct 04, 2022 11:22 pm N/A   None None 4 mph 6 mph N   96%   > 1/2 mi
WY 387 Pine Tree Junction 131.79 Mar 28, 2022 05:12 pm                      
WY 487 Shirley Rim 37 Oct 04, 2022 11:22 pm Dry 45.3°F None None 1 mph 1 mph W 32.0°F 86% 35.6°F > 1/2 mi
WY 59 Belle Fourche 87 Oct 04, 2022 11:22 pm Dry 48.6°F None   4 mph 5 mph W 39.2°F 91% 41.0°F  
WY 789 Beaver Rim 48.1 Oct 04, 2022 11:22 pm     None None 3 mph 4 mph NW 24.8°F 38% 48.2°F > 1/2 mi

Contact Us
Copyright 2021 Disclaimer Privacy Policy Media